Terminal Aerodrome Forecast
Issued by NWS

Home | Current Version | Previous Version | Text Only | Print | Product List | Glossary On
Versions: 1 2 3 4 5 6 7 8 9 10 11 12 13 14
000
FTUS44 KLIX 261120
TAFHUM
TAF
KHUM 261120Z 2612/2712 00000KT P6SM SKC
      TEMPO 2615/2619 4SM TSRA BKN020CB
     FM261900 00000KT P6SM VCTS BKN030CB BKN200
     FM270300 15004KT P6SM BKN040 BKN250=

USA.gov is the U.S. government's official web portal to all federal, state and local government web resources and services.